createdAt,value
2023-05-05T00:00:36.534Z,57.04
2023-05-05T00:02:38.193Z,56.31
2023-05-05T00:04:39.992Z,57.14
2023-05-05T00:06:41.526Z,55.52
2023-05-05T00:08:43.044Z,56.99
2023-05-05T00:10:50.309Z,57.00
2023-05-05T00:12:51.870Z,57.40
2023-05-05T00:14:53.412Z,57.02
2023-05-05T00:16:54.949Z,57.37
2023-05-05T00:18:56.516Z,57.14
2023-05-05T00:20:58.114Z,57.66
2023-05-05T00:22:59.650Z,56.81
2023-05-05T00:25:03.100Z,58.08
2023-05-05T00:27:04.753Z,57.83
2023-05-05T00:29:06.316Z,58.11
2023-05-05T00:31:08.502Z,56.73
2023-05-05T00:33:10.131Z,56.71
2023-05-05T00:35:11.700Z,56.12
2023-05-05T00:37:13.220Z,56.84
2023-05-05T00:39:15.102Z,56.21
2023-05-05T00:41:16.722Z,55.99
2023-05-05T00:43:18.214Z,57.69
2023-05-05T00:45:20.605Z,57.35
2023-05-05T00:47:22.157Z,57.92
2023-05-05T00:49:23.760Z,57.97
2023-05-05T00:51:26.327Z,56.09
2023-05-05T00:53:28.467Z,56.91
2023-05-05T00:55:30.775Z,57.12
2023-05-05T00:57:33.770Z,57.88
2023-05-05T00:59:36.820Z,56.79
2023-05-05T01:01:38.398Z,57.26
2023-05-05T01:03:43.889Z,57.06
2023-05-05T01:06:39.915Z,56.83
2023-05-05T01:09:05.980Z,55.95
2023-05-05T01:11:14.452Z,56.97
2023-05-05T01:13:34.247Z,57.07
2023-05-05T01:16:20.534Z,57.86
2023-05-05T01:18:37.048Z,58.40
2023-05-05T01:20:48.164Z,59.55
2023-05-05T01:23:04.171Z,58.18
2023-05-05T01:25:24.111Z,58.91
2023-05-05T01:27:44.807Z,58.37
2023-05-05T01:30:08.747Z,57.97
2023-05-05T01:32:14.364Z,57.56
2023-05-05T01:34:19.249Z,57.13
2023-05-05T01:36:26.046Z,58.81
2023-05-05T01:38:35.037Z,58.21
2023-05-05T01:40:45.124Z,56.79
2023-05-05T01:42:48.425Z,56.79
2023-05-05T01:44:53.076Z,57.87
2023-05-05T01:46:55.607Z,57.45
2023-05-05T01:48:58.768Z,56.85
2023-05-05T01:51:03.275Z,59.32
2023-05-05T01:53:06.531Z,57.03
2023-05-05T01:55:10.398Z,56.38
2023-05-05T01:57:14.307Z,57.61
2023-05-05T01:59:17.215Z,56.48
2023-05-05T02:01:24.523Z,58.46
2023-05-05T02:03:27.650Z,57.67
2023-05-05T02:05:31.741Z,56.56
2023-05-05T02:07:34.617Z,55.71
2023-05-05T02:09:37.051Z,57.21
2023-05-05T02:11:39.510Z,58.37
2023-05-05T02:13:43.009Z,59.63
2023-05-05T02:15:45.354Z,59.32
2023-05-05T02:17:48.840Z,58.43
2023-05-05T02:19:52.487Z,57.93
2023-05-05T02:21:54.131Z,60.37
2023-05-05T02:23:55.872Z,58.88
2023-05-05T02:26:06.126Z,60.06
2023-05-05T02:28:20.329Z,57.70
2023-05-05T02:30:22.838Z,59.06
2023-05-05T02:32:35.143Z,59.72
2023-05-05T02:34:40.216Z,59.27
2023-05-05T02:36:42.957Z,59.47
2023-05-05T02:38:46.459Z,60.38
2023-05-05T02:40:51.177Z,58.59
2023-05-05T02:42:55.567Z,59.93
2023-05-05T02:45:01.373Z,60.25
2023-05-05T02:47:04.891Z,60.55
2023-05-05T02:49:06.545Z,60.43
2023-05-05T02:51:08.060Z,59.85
2023-05-05T02:53:09.645Z,60.69
2023-05-05T02:55:11.798Z,61.09
2023-05-05T02:57:20.004Z,60.90
2023-05-05T02:59:34.332Z,60.01
2023-05-05T03:02:09.847Z,61.54
2023-05-05T03:04:17.521Z,61.17
2023-05-05T03:06:26.745Z,62.13
2023-05-05T03:08:32.520Z,62.04
2023-05-05T03:10:46.275Z,62.76
2023-05-05T03:12:59.924Z,62.66
2023-05-05T03:15:02.625Z,63.69
2023-05-05T03:17:06.193Z,63.03
2023-05-05T03:19:11.357Z,62.58
2023-05-05T03:21:13.396Z,64.09
2023-05-05T03:23:18.276Z,63.64
2023-05-05T03:25:19.861Z,64.64
2023-05-05T03:27:21.517Z,64.22
2023-05-05T03:29:23.165Z,63.70
2023-05-05T03:31:24.977Z,65.06
2023-05-05T03:33:26.637Z,65.38
2023-05-05T03:35:28.276Z,65.81
2023-05-05T03:37:30.054Z,64.83
2023-05-05T03:39:31.674Z,65.65
2023-05-05T03:41:33.204Z,65.48
2023-05-05T03:43:34.766Z,66.28
2023-05-05T03:45:36.344Z,67.20
2023-05-05T03:47:37.945Z,67.49
2023-05-05T03:49:39.532Z,67.10
2023-05-05T03:51:41.408Z,66.54
2023-05-05T03:53:43.097Z,66.91
2023-05-05T03:55:44.647Z,67.32
2023-05-05T03:57:46.171Z,66.83
2023-05-05T03:59:48.044Z,67.63
2023-05-05T04:01:50.058Z,67.93
2023-05-05T04:03:51.843Z,66.96
2023-05-05T04:05:53.476Z,67.21
2023-05-05T04:07:55.071Z,67.92
2023-05-05T04:09:56.694Z,67.76
2023-05-05T04:11:58.355Z,67.95
2023-05-05T04:13:59.900Z,68.09
2023-05-05T04:16:01.659Z,68.18
2023-05-05T04:18:03.357Z,68.54
2023-05-05T04:20:06.490Z,69.78
2023-05-05T04:22:08.162Z,69.20
2023-05-05T04:24:09.971Z,69.20
2023-05-05T04:26:11.705Z,70.08
2023-05-05T04:28:13.332Z,69.40
2023-05-05T04:30:15.030Z,69.01
2023-05-05T04:32:16.848Z,68.76
2023-05-05T04:34:18.454Z,69.54
2023-05-05T04:36:20.047Z,71.84
2023-05-05T04:38:21.921Z,71.55
2023-05-05T04:40:23.560Z,70.91
2023-05-05T04:42:25.888Z,71.10
2023-05-05T04:44:27.389Z,71.41
2023-05-05T04:46:29.075Z,70.60
2023-05-05T04:48:30.652Z,71.96
2023-05-05T04:50:32.583Z,70.33
2023-05-05T04:52:34.286Z,71.25
2023-05-05T04:54:36.877Z,71.18
2023-05-05T04:56:38.432Z,71.61
2023-05-05T04:58:40.029Z,70.97
2023-05-05T05:00:41.769Z,71.38
2023-05-05T05:02:43.445Z,70.18
2023-05-05T05:04:45.046Z,70.34
2023-05-05T05:06:46.632Z,72.18
2023-05-05T05:08:48.188Z,70.00
2023-05-05T05:10:49.743Z,72.38
2023-05-05T05:12:51.810Z,72.82
2023-05-05T05:14:53.450Z,71.68
2023-05-05T05:16:55.090Z,73.57
2023-05-05T05:18:56.677Z,74.04
2023-05-05T05:20:58.260Z,72.06
2023-05-05T05:23:02.226Z,70.85
2023-05-05T05:25:03.965Z,72.21
2023-05-05T05:27:09.790Z,74.50
2023-05-05T05:29:11.777Z,73.89
2023-05-05T05:31:13.328Z,72.79
2023-05-05T05:33:15.045Z,74.57
2023-05-05T05:35:16.839Z,74.11
2023-05-05T05:37:18.412Z,75.19
2023-05-05T05:39:20.019Z,75.20
2023-05-05T05:41:21.680Z,73.70
2023-05-05T05:43:23.257Z,71.54
2023-05-05T05:45:24.835Z,73.53
2023-05-05T05:47:26.748Z,72.74
2023-05-05T05:49:28.292Z,72.08
2023-05-05T05:51:30.370Z,73.90
2023-05-05T05:53:31.978Z,71.83
2023-05-05T05:55:33.601Z,71.25
2023-05-05T05:57:35.250Z,71.68
2023-05-05T05:59:36.782Z,72.10
2023-05-05T06:01:38.393Z,71.65
2023-05-05T06:03:40.057Z,73.60
2023-05-05T06:05:41.735Z,70.71
2023-05-05T06:07:43.273Z,70.21
2023-05-05T06:09:44.893Z,71.62
2023-05-05T06:11:46.487Z,73.16
2023-05-05T06:13:48.078Z,71.01
2023-05-05T06:15:49.684Z,69.72
2023-05-05T06:17:51.519Z,71.66
2023-05-05T06:19:54.528Z,69.67
2023-05-05T06:21:56.256Z,69.39
2023-05-05T06:23:57.801Z,69.63
2023-05-05T06:25:59.346Z,70.02
2023-05-05T06:28:00.879Z,69.63
2023-05-05T06:30:02.581Z,69.19
2023-05-05T06:32:04.210Z,70.25
2023-05-05T06:34:05.835Z,68.94
2023-05-05T06:36:07.566Z,67.83
2023-05-05T06:38:09.810Z,69.05
2023-05-05T06:40:12.006Z,68.89
2023-05-05T06:42:13.524Z,68.86
2023-05-05T06:44:15.079Z,68.68
2023-05-05T06:46:16.605Z,68.37
2023-05-05T06:48:18.584Z,68.40
2023-05-05T06:50:20.253Z,68.01
2023-05-05T06:52:22.967Z,66.36
2023-05-05T06:54:24.527Z,66.27
2023-05-05T06:56:26.137Z,66.25
2023-05-05T06:58:27.740Z,64.68
2023-05-05T07:00:29.372Z,64.92
2023-05-05T07:02:31.537Z,64.53
2023-05-05T07:04:33.062Z,63.97
2023-05-05T07:06:34.718Z,64.80
2023-05-05T07:08:36.279Z,63.43
2023-05-05T07:10:38.275Z,63.52
2023-05-05T07:12:39.869Z,63.54
2023-05-05T07:14:41.354Z,63.61
2023-05-05T07:16:42.918Z,63.14
2023-05-05T07:18:44.545Z,63.08
2023-05-05T07:20:46.178Z,62.89
2023-05-05T07:22:47.721Z,61.94
2023-05-05T07:24:49.821Z,63.26
2023-05-05T07:26:52.891Z,61.55
2023-05-05T07:28:57.236Z,60.83
2023-05-05T07:30:58.735Z,60.95
2023-05-05T07:33:00.402Z,61.40
2023-05-05T07:35:02.062Z,60.69
2023-05-05T07:37:07.117Z,60.45
2023-05-05T07:39:08.659Z,60.04
2023-05-05T07:41:11.695Z,60.49
2023-05-05T07:43:13.281Z,59.27
2023-05-05T07:45:14.948Z,59.93
2023-05-05T07:47:16.520Z,58.98
2023-05-05T07:49:18.277Z,60.45
2023-05-05T07:51:19.821Z,59.22
2023-05-05T07:53:21.506Z,58.96
2023-05-05T07:55:23.166Z,59.18
2023-05-05T07:57:24.772Z,59.65
2023-05-05T07:59:26.343Z,59.45
2023-05-05T08:01:27.907Z,58.64
2023-05-05T08:03:29.615Z,59.14
2023-05-05T08:05:31.361Z,59.36
2023-05-05T08:07:33.035Z,59.16
2023-05-05T08:09:35.829Z,58.58
2023-05-05T08:11:37.737Z,60.25
2023-05-05T08:13:39.251Z,58.45
2023-05-05T08:15:40.889Z,58.73
2023-05-05T08:17:51.649Z,58.48
2023-05-05T08:19:53.364Z,59.03
2023-05-05T08:21:56.074Z,57.99
2023-05-05T08:23:57.713Z,58.41
2023-05-05T08:25:59.366Z,58.74
2023-05-05T08:28:01.154Z,59.06
2023-05-05T08:30:04.103Z,58.54
2023-05-05T08:32:05.943Z,58.52
2023-05-05T08:34:07.565Z,58.22
2023-05-05T08:36:09.205Z,58.19
2023-05-05T08:38:12.019Z,57.60
2023-05-05T08:40:14.332Z,57.79
2023-05-05T08:42:29.070Z,57.48
2023-05-05T08:44:37.688Z,59.59
2023-05-05T08:46:40.066Z,57.58
2023-05-05T08:48:45.056Z,57.87
2023-05-05T08:50:51.527Z,57.37
2023-05-05T08:53:15.718Z,57.47
2023-05-05T08:55:20.079Z,57.38
2023-05-05T08:57:32.434Z,57.20
2023-05-05T08:59:39.303Z,56.75
2023-05-05T09:01:42.822Z,57.01
2023-05-05T09:03:47.560Z,56.46
2023-05-05T09:05:51.135Z,57.43
2023-05-05T09:07:52.717Z,57.88
2023-05-05T09:09:54.329Z,56.43
2023-05-05T09:11:58.117Z,56.04
2023-05-05T09:13:59.728Z,56.47
2023-05-05T09:16:01.565Z,57.59
2023-05-05T09:18:05.239Z,57.96
2023-05-05T09:20:11.724Z,56.98
2023-05-05T09:22:13.266Z,56.51
2023-05-05T09:24:15.706Z,57.07
2023-05-05T09:26:17.351Z,57.47
2023-05-05T09:28:19.129Z,56.40
2023-05-05T09:30:25.314Z,56.85
2023-05-05T09:32:28.648Z,58.12
2023-05-05T09:34:35.189Z,56.82
2023-05-05T09:36:48.011Z,55.76
2023-05-05T09:39:03.959Z,56.64
2023-05-05T09:41:06.515Z,56.05
2023-05-05T09:43:08.155Z,55.70
2023-05-05T09:45:18.682Z,55.87
2023-05-05T09:47:29.290Z,54.51
2023-05-05T09:49:31.636Z,54.75
2023-05-05T09:51:33.311Z,54.92
2023-05-05T09:53:40.342Z,54.71
2023-05-05T09:55:51.955Z,54.98
2023-05-05T09:57:53.550Z,55.32
2023-05-05T10:00:02.578Z,56.22
2023-05-05T10:02:13.733Z,56.02
2023-05-05T10:04:29.975Z,55.69
2023-05-05T10:06:44.706Z,57.04
2023-05-05T10:09:01.237Z,55.08
2023-05-05T10:11:07.348Z,55.74
2023-05-05T10:13:10.686Z,55.91
2023-05-05T10:15:13.983Z,55.85
2023-05-05T10:17:16.179Z,55.90
2023-05-05T10:19:22.961Z,55.77
2023-05-05T10:21:25.551Z,55.53
2023-05-05T10:23:41.628Z,54.79
2023-05-05T10:25:50.785Z,54.88
2023-05-05T10:27:55.630Z,53.89
2023-05-05T10:30:07.697Z,53.75
2023-05-05T10:34:54.414Z,55.41
2023-05-05T10:36:57.752Z,53.99
2023-05-05T10:39:00.153Z,54.26
2023-05-05T10:41:04.984Z,54.71
2023-05-05T10:43:07.568Z,55.02
2023-05-05T10:45:09.637Z,54.30
2023-05-05T10:47:12.341Z,54.59
2023-05-05T10:49:28.004Z,53.98
2023-05-05T10:51:41.051Z,53.85
2023-05-05T10:53:54.335Z,53.29
2023-05-05T10:56:14.417Z,53.65
2023-05-05T10:58:55.594Z,52.40
2023-05-05T11:01:00.601Z,52.85
2023-05-05T11:03:17.726Z,53.36
2023-05-05T11:05:21.594Z,52.42
2023-05-05T11:07:24.068Z,51.49
2023-05-05T11:09:29.278Z,51.22
2023-05-05T11:12:02.766Z,51.21
2023-05-05T11:14:21.255Z,51.04
2023-05-05T11:16:48.211Z,51.06
2023-05-05T11:18:49.990Z,49.82
2023-05-05T11:20:57.602Z,49.97
2023-05-05T11:23:05.359Z,49.46
2023-05-05T11:25:35.426Z,48.88
2023-05-05T11:28:11.482Z,49.47
2023-05-05T11:30:13.587Z,51.70
2023-05-05T11:32:19.978Z,50.36
2023-05-05T11:34:29.020Z,51.40
2023-05-05T11:36:40.915Z,50.39
2023-05-05T11:39:05.722Z,51.60
2023-05-05T11:41:10.068Z,51.71
2023-05-05T11:43:11.629Z,49.45
2023-05-05T11:45:21.748Z,50.35
2023-05-05T11:47:23.230Z,49.21
2023-05-05T11:49:35.813Z,49.75
2023-05-05T11:51:37.707Z,49.22
2023-05-05T11:53:47.359Z,48.72
2023-05-05T11:55:48.964Z,49.55
2023-05-05T11:57:50.905Z,49.05
2023-05-05T11:59:57.307Z,49.56
2023-05-05T12:01:59.456Z,48.94
2023-05-05T12:04:01.278Z,49.98
2023-05-05T12:06:04.302Z,49.70
2023-05-05T12:08:06.633Z,49.64
2023-05-05T12:10:08.761Z,50.08
2023-05-05T12:12:10.525Z,50.18
2023-05-05T12:14:12.104Z,50.18
2023-05-05T12:16:15.610Z,49.97
2023-05-05T12:18:21.104Z,50.03
2023-05-05T12:20:33.295Z,50.85
2023-05-05T12:22:35.541Z,51.80
2023-05-05T12:24:37.169Z,51.51
2023-05-05T12:26:38.743Z,50.76
2023-05-05T12:28:47.767Z,50.68
2023-05-05T12:30:59.492Z,51.19
2023-05-05T12:33:05.868Z,52.40
2023-05-05T12:35:08.625Z,52.41
2023-05-05T12:37:10.604Z,52.98
2023-05-05T12:39:12.290Z,54.07
2023-05-05T12:41:19.376Z,56.00
2023-05-05T12:43:32.141Z,56.23
2023-05-05T12:45:33.629Z,59.90
2023-05-05T12:47:36.881Z,59.89
2023-05-05T12:49:51.773Z,61.85
2023-05-05T12:51:55.765Z,61.95
2023-05-05T12:54:10.289Z,63.88
2023-05-05T12:56:30.621Z,64.32
2023-05-05T12:58:48.621Z,64.99
2023-05-05T13:01:08.630Z,68.43
2023-05-05T13:03:19.926Z,66.84
2023-05-05T13:05:36.277Z,66.36
2023-05-05T13:07:51.060Z,66.94
2023-05-05T13:10:07.145Z,65.30
2023-05-05T13:12:11.580Z,66.97
2023-05-05T13:14:13.136Z,67.21
2023-05-05T13:16:14.784Z,67.73
2023-05-05T13:18:16.365Z,67.19
2023-05-05T13:20:18.044Z,67.46
2023-05-05T13:22:19.576Z,67.88
2023-05-05T13:24:28.586Z,68.18
2023-05-05T13:26:36.318Z,69.38
2023-05-05T13:28:38.263Z,72.37
2023-05-05T13:30:41.847Z,71.51
2023-05-05T13:32:43.388Z,73.24
2023-05-05T13:34:44.903Z,76.27
2023-05-05T13:36:46.472Z,75.09
2023-05-05T13:38:47.998Z,74.42
2023-05-05T13:40:49.503Z,74.95
2023-05-05T13:42:51.036Z,74.81
2023-05-05T13:44:52.661Z,73.83
2023-05-05T13:46:54.422Z,73.71
2023-05-05T13:48:56.899Z,74.62
2023-05-05T13:50:58.614Z,73.61
2023-05-05T13:53:00.160Z,73.20
2023-05-05T13:55:01.822Z,73.42
2023-05-05T13:57:03.543Z,74.26
2023-05-05T13:59:05.051Z,71.80
2023-05-05T14:01:06.595Z,71.56
2023-05-05T14:03:08.142Z,71.43
2023-05-05T14:05:10.265Z,70.97
2023-05-05T14:07:11.995Z,71.41
2023-05-05T14:09:13.565Z,70.37
2023-05-05T14:11:17.147Z,70.21
2023-05-05T14:13:18.879Z,69.76
2023-05-05T14:15:20.592Z,73.12
2023-05-05T14:17:22.131Z,72.02
2023-05-05T14:19:23.637Z,71.79
2023-05-05T14:21:25.241Z,71.87
2023-05-05T14:23:26.791Z,70.34
2023-05-05T14:25:28.315Z,69.57
2023-05-05T14:27:29.985Z,70.28
2023-05-05T14:29:31.599Z,67.89
2023-05-05T14:31:33.165Z,69.99
2023-05-05T14:33:34.749Z,69.07
2023-05-05T14:35:36.333Z,71.93
2023-05-05T14:37:37.914Z,72.12
2023-05-05T14:39:39.413Z,70.33
2023-05-05T14:41:40.983Z,73.13
2023-05-05T14:43:42.577Z,70.76
2023-05-05T14:45:44.404Z,71.27
2023-05-05T14:47:46.060Z,72.02
2023-05-05T14:49:47.588Z,72.46
2023-05-05T14:51:49.375Z,72.85
2023-05-05T14:53:51.037Z,73.45
2023-05-05T14:55:52.590Z,72.35
2023-05-05T14:57:54.142Z,73.97
2023-05-05T14:59:55.848Z,74.49
2023-05-05T15:01:57.421Z,75.42
2023-05-05T15:03:59.165Z,76.70
2023-05-05T15:06:00.913Z,76.33
2023-05-05T15:08:02.458Z,73.55
2023-05-05T15:10:04.790Z,74.03
2023-05-05T15:12:06.681Z,72.96
2023-05-05T15:14:08.236Z,76.41
2023-05-05T15:16:09.961Z,73.08
2023-05-05T15:18:11.734Z,74.20
2023-05-05T15:20:13.286Z,73.59
2023-05-05T15:22:14.902Z,75.19
2023-05-05T15:24:16.540Z,73.64
2023-05-05T15:26:18.091Z,76.58
2023-05-05T15:28:19.741Z,74.86
2023-05-05T15:30:21.276Z,75.51
2023-05-05T15:32:22.884Z,72.28
2023-05-05T15:34:24.477Z,72.90
2023-05-05T15:36:26.052Z,73.43
2023-05-05T15:38:29.077Z,74.67
2023-05-05T15:40:30.675Z,74.49
2023-05-05T15:42:33.412Z,75.46
2023-05-05T15:44:36.446Z,76.32
2023-05-05T15:46:37.987Z,75.29
2023-05-05T15:48:39.516Z,77.94
2023-05-05T15:50:41.138Z,77.58
2023-05-05T15:52:42.955Z,73.66
2023-05-05T15:54:44.546Z,72.75
2023-05-05T15:56:46.124Z,74.79
2023-05-05T15:58:47.664Z,74.11
2023-05-05T16:00:49.272Z,74.26
2023-05-05T16:02:51.136Z,74.19
2023-05-05T16:04:53.475Z,75.51
2023-05-05T16:06:55.465Z,74.40
2023-05-05T16:08:58.577Z,75.51
2023-05-05T16:11:00.150Z,76.09
2023-05-05T16:13:01.667Z,76.81
2023-05-05T16:15:03.323Z,76.51
2023-05-05T16:17:04.903Z,77.65
2023-05-05T16:19:06.558Z,77.82
2023-05-05T16:21:08.428Z,78.93
2023-05-05T16:23:10.366Z,79.45
2023-05-05T16:25:11.904Z,80.01
2023-05-05T16:27:14.293Z,78.98
2023-05-05T16:29:16.566Z,80.70
2023-05-05T16:31:18.125Z,80.42
2023-05-05T16:33:19.649Z,81.73
2023-05-05T16:35:23.007Z,81.72
2023-05-05T16:37:24.574Z,82.19
2023-05-05T16:39:26.410Z,82.96
2023-05-05T16:41:28.051Z,82.40
2023-05-05T16:43:29.675Z,82.26
2023-05-05T16:45:31.787Z,82.60
2023-05-05T16:47:33.331Z,82.75
2023-05-05T16:49:34.954Z,82.72
2023-05-05T16:51:36.542Z,84.16
2023-05-05T16:53:38.344Z,83.86
2023-05-05T16:55:42.249Z,83.20
2023-05-05T16:57:43.789Z,83.11
2023-05-05T16:59:45.330Z,83.90
2023-05-05T17:01:47.027Z,84.20
2023-05-05T17:03:48.700Z,84.11
2023-05-05T17:05:52.842Z,82.31
2023-05-05T17:07:54.611Z,83.41
2023-05-05T17:09:56.399Z,83.78
2023-05-05T17:11:58.405Z,83.64
2023-05-05T17:13:59.929Z,84.13
2023-05-05T17:16:01.458Z,84.72
2023-05-05T17:18:04.885Z,85.29
2023-05-05T17:20:07.774Z,85.30
2023-05-05T17:22:09.270Z,84.37
2023-05-05T17:24:11.434Z,85.19
2023-05-05T17:26:13.163Z,84.97
2023-05-05T17:28:15.786Z,85.71
2023-05-05T17:30:18.620Z,85.38
2023-05-05T17:32:20.125Z,85.14
2023-05-05T17:34:22.040Z,84.79
2023-05-05T17:36:23.967Z,85.52
2023-05-05T17:38:25.783Z,86.49
2023-05-05T17:40:27.334Z,86.64
2023-05-05T17:42:32.946Z,86.38
2023-05-05T17:44:34.464Z,86.46
2023-05-05T17:46:36.444Z,86.28
2023-05-05T17:48:38.067Z,86.42
2023-05-05T17:50:41.298Z,86.49
2023-05-05T17:52:45.154Z,86.40
2023-05-05T17:54:47.630Z,85.73
2023-05-05T17:56:49.153Z,85.56
2023-05-05T17:58:50.753Z,85.97
2023-05-05T18:00:52.474Z,84.52
2023-05-05T18:02:54.319Z,86.22
2023-05-05T18:04:56.203Z,86.28
2023-05-05T18:06:57.920Z,86.37
2023-05-05T18:08:59.625Z,86.87
2023-05-05T18:11:01.926Z,86.53
2023-05-05T18:13:03.654Z,85.61
2023-05-05T18:15:05.935Z,86.35
2023-05-05T18:17:07.621Z,86.21
2023-05-05T18:19:09.108Z,86.35
2023-05-05T18:21:12.350Z,85.91
2023-05-05T18:23:13.983Z,85.64
2023-05-05T18:25:15.505Z,86.12
2023-05-05T18:27:17.133Z,86.52
2023-05-05T18:29:21.482Z,86.55
2023-05-05T18:31:23.034Z,87.13
2023-05-05T18:33:24.636Z,87.25
2023-05-05T18:35:26.881Z,87.05
2023-05-05T18:37:28.418Z,87.00
2023-05-05T18:39:30.313Z,87.92
2023-05-05T18:41:32.234Z,87.07
2023-05-05T18:43:33.818Z,87.03
2023-05-05T18:45:35.387Z,88.26
2023-05-05T18:47:40.001Z,87.54
2023-05-05T18:49:41.553Z,88.07
2023-05-05T18:51:43.822Z,87.92
2023-05-05T18:53:45.435Z,87.53
2023-05-05T18:55:47.179Z,87.52
2023-05-05T18:57:48.735Z,86.95
2023-05-05T18:59:50.275Z,87.24
2023-05-05T19:01:52.724Z,88.64
2023-05-05T19:03:54.335Z,87.00
2023-05-05T19:05:56.736Z,87.38
2023-05-05T19:07:58.894Z,87.75
2023-05-05T19:10:00.652Z,87.72
2023-05-05T19:12:02.962Z,88.43
2023-05-05T19:14:04.490Z,88.17
2023-05-05T19:16:06.103Z,88.46
2023-05-05T19:18:07.700Z,88.54
2023-05-05T19:20:09.702Z,88.18
2023-05-05T19:22:11.357Z,89.34
2023-05-05T19:24:12.853Z,87.70
2023-05-05T19:26:15.178Z,88.22
2023-05-05T19:28:16.800Z,89.37
2023-05-05T19:30:18.327Z,88.73
2023-05-05T19:32:21.251Z,89.05
2023-05-05T19:34:23.110Z,89.45
2023-05-05T19:36:25.355Z,89.09
2023-05-05T19:38:26.918Z,87.73
2023-05-05T19:40:28.783Z,87.88
2023-05-05T19:42:30.451Z,88.90
2023-05-05T19:44:31.984Z,88.83
2023-05-05T19:46:33.714Z,89.31
2023-05-05T19:48:35.314Z,89.71
2023-05-05T19:50:36.945Z,89.55
2023-05-05T19:52:41.307Z,89.78
2023-05-05T19:54:43.491Z,89.60
2023-05-05T19:56:45.109Z,90.02
2023-05-05T19:58:53.570Z,89.05
2023-05-05T20:00:55.065Z,89.57
2023-05-05T20:02:56.732Z,90.62
2023-05-05T20:04:58.345Z,90.65
2023-05-05T20:06:59.905Z,90.07
2023-05-05T20:09:02.074Z,90.09
2023-05-05T20:11:03.628Z,89.86
2023-05-05T20:13:05.196Z,90.34
2023-05-05T20:15:07.467Z,90.16
2023-05-05T20:17:09.048Z,90.47
2023-05-05T20:19:10.742Z,91.68
2023-05-05T20:21:12.490Z,91.35
2023-05-05T20:23:14.038Z,90.51
2023-05-05T20:25:18.826Z,91.66
2023-05-05T20:27:21.486Z,91.69
2023-05-05T20:29:23.148Z,91.69
2023-05-05T20:31:24.704Z,91.76
2023-05-05T20:33:26.992Z,92.24
2023-05-05T20:35:28.469Z,90.26
2023-05-05T20:37:30.045Z,90.54
2023-05-05T20:39:31.588Z,91.93
2023-05-05T20:41:33.186Z,91.61
2023-05-05T20:43:36.292Z,92.61
2023-05-05T20:45:38.020Z,92.35
2023-05-05T20:47:39.959Z,91.52
2023-05-05T20:49:41.528Z,91.25
2023-05-05T20:51:43.086Z,90.88
2023-05-05T20:53:44.674Z,91.66
2023-05-05T20:55:46.408Z,92.81
2023-05-05T20:57:48.131Z,93.70
2023-05-05T20:59:49.669Z,93.93
2023-05-05T21:01:51.428Z,95.40
2023-05-05T21:03:52.972Z,95.20
2023-05-05T21:05:54.706Z,95.19
2023-05-05T21:07:57.809Z,93.25
2023-05-05T21:10:01.319Z,94.08
2023-05-05T21:12:03.358Z,92.98
2023-05-05T21:14:05.546Z,91.30
2023-05-05T21:16:07.186Z,94.15
2023-05-05T21:18:08.896Z,92.27
2023-05-05T21:20:11.338Z,90.91
2023-05-05T21:22:13.171Z,91.20
2023-05-05T21:24:14.815Z,90.89
2023-05-05T21:26:16.379Z,89.54
2023-05-05T21:28:17.896Z,89.20
2023-05-05T21:30:19.465Z,89.24
2023-05-05T21:32:21.080Z,90.37
2023-05-05T21:34:22.668Z,89.67
2023-05-05T21:36:24.818Z,90.02
2023-05-05T21:38:26.354Z,90.91
2023-05-05T21:40:27.937Z,92.40
2023-05-05T21:42:30.693Z,91.76
2023-05-05T21:44:32.625Z,92.08
2023-05-05T21:46:34.208Z,91.24
2023-05-05T21:48:38.847Z,92.42
2023-05-05T21:50:40.597Z,90.67
2023-05-05T21:52:42.154Z,91.64
2023-05-05T21:54:43.697Z,91.93
2023-05-05T21:56:45.219Z,91.87
2023-05-05T21:58:46.836Z,92.16
2023-05-05T22:00:51.372Z,94.13
2023-05-05T22:02:53.024Z,92.72
2023-05-05T22:04:54.723Z,94.09
2023-05-05T22:06:56.494Z,93.46
2023-05-05T22:08:58.083Z,92.91
2023-05-05T22:10:59.636Z,91.42
2023-05-05T22:13:01.200Z,91.95
2023-05-05T22:15:02.909Z,91.18
2023-05-05T22:17:04.495Z,92.06
2023-05-05T22:19:06.829Z,91.42
2023-05-05T22:21:08.448Z,91.51
2023-05-05T22:23:09.952Z,90.80
2023-05-05T22:25:11.739Z,91.68
2023-05-05T22:27:13.514Z,90.90
2023-05-05T22:29:15.040Z,90.24
2023-05-05T22:31:16.862Z,89.54
2023-05-05T22:33:18.409Z,90.13
2023-05-05T22:35:20.171Z,91.04
2023-05-05T22:37:21.887Z,90.93
2023-05-05T22:39:23.811Z,91.98
2023-05-05T22:41:25.682Z,91.28
2023-05-05T22:43:27.201Z,91.47
2023-05-05T22:45:28.825Z,91.54
2023-05-05T22:47:31.233Z,91.52
2023-05-05T22:49:32.945Z,91.58
2023-05-05T22:51:34.681Z,91.08
2023-05-05T22:53:36.249Z,92.31
2023-05-05T22:55:37.824Z,91.57
2023-05-05T22:57:39.620Z,91.39
2023-05-05T22:59:41.298Z,90.48
2023-05-05T23:01:42.991Z,91.21
2023-05-05T23:03:44.573Z,92.07
2023-05-05T23:05:46.211Z,92.54
2023-05-05T23:07:47.774Z,92.56
2023-05-05T23:09:49.302Z,93.63
2023-05-05T23:11:50.872Z,92.96
2023-05-05T23:13:52.399Z,92.89
2023-05-05T23:15:54.021Z,92.95
2023-05-05T23:17:55.639Z,93.69
2023-05-05T23:19:57.220Z,93.24
2023-05-05T23:21:59.627Z,93.66
2023-05-05T23:24:01.183Z,92.72
2023-05-05T23:26:02.764Z,93.15
2023-05-05T23:28:04.394Z,93.74
2023-05-05T23:30:08.209Z,92.45
2023-05-05T23:32:09.784Z,92.01
2023-05-05T23:34:11.365Z,92.90
2023-05-05T23:36:13.046Z,94.47
2023-05-05T23:38:14.643Z,93.25
2023-05-05T23:40:16.279Z,92.65
2023-05-05T23:44:27.563Z,93.35
2023-05-05T23:46:29.407Z,93.14
2023-05-05T23:48:30.923Z,91.77
2023-05-05T23:50:32.300Z,92.58
2023-05-05T23:52:33.813Z,92.90
2023-05-05T23:54:35.471Z,93.29
2023-05-05T23:56:37.502Z,92.88
2023-05-05T23:58:39.146Z,93.88
